createdAt,value
2018-01-26T00:01:51.893Z,97.86
2018-01-26T00:04:20.201Z,97.91
2018-01-26T00:06:48.517Z,97.98
2018-01-26T00:09:19.455Z,98.04
2018-01-26T00:11:47.808Z,98.11
2018-01-26T00:14:16.135Z,98.24
2018-01-26T00:16:44.488Z,98.30
2018-01-26T00:19:12.792Z,98.24
2018-01-26T00:21:42.751Z,98.20
2018-01-26T00:24:12.827Z,98.17
2018-01-26T00:26:41.187Z,98.21
2018-01-26T00:29:09.473Z,98.25
2018-01-26T00:31:37.758Z,98.28
2018-01-26T00:34:06.072Z,98.26
2018-01-26T00:36:36.959Z,98.13
2018-01-26T00:39:06.051Z,98.17
2018-01-26T00:41:34.393Z,98.10
2018-01-26T00:44:04.425Z,98.07
2018-01-26T00:46:32.783Z,98.08
2018-01-26T00:49:01.213Z,98.05
2018-01-26T00:51:29.683Z,97.97
2018-01-26T00:53:58.266Z,97.90
2018-01-26T00:56:26.549Z,97.82
2018-01-26T00:58:54.920Z,97.73
2018-01-26T01:01:23.195Z,97.67
2018-01-26T01:03:51.482Z,97.60
2018-01-26T01:06:19.897Z,97.56
2018-01-26T01:08:48.196Z,97.58
2018-01-26T01:11:16.460Z,97.55
2018-01-26T01:13:44.847Z,97.52
2018-01-26T01:16:13.207Z,97.46
2018-01-26T01:18:41.541Z,97.37
2018-01-26T01:21:11.513Z,97.51
2018-01-26T01:23:39.886Z,97.50
2018-01-26T01:26:08.228Z,97.45
2018-01-26T01:28:38.386Z,97.45
2018-01-26T01:31:06.759Z,97.50
2018-01-26T01:33:35.098Z,97.55
2018-01-26T01:36:03.378Z,97.54
2018-01-26T01:38:31.701Z,97.47
2018-01-26T01:41:00.012Z,97.38
2018-01-26T01:43:28.365Z,97.32
2018-01-26T01:45:58.426Z,97.28
2018-01-26T01:48:26.812Z,97.22
2018-01-26T01:50:55.123Z,97.15
2018-01-26T01:53:23.465Z,97.20
2018-01-26T01:55:51.841Z,97.18
2018-01-26T01:58:21.777Z,97.13
2018-01-26T02:00:50.135Z,97.14
2018-01-26T02:03:19.218Z,97.11
2018-01-26T02:05:48.318Z,97.06
2018-01-26T02:08:16.604Z,97.08
2018-01-26T02:10:44.982Z,97.10
2018-01-26T02:13:13.256Z,97.16
2018-01-26T02:15:41.626Z,97.17
2018-01-26T02:18:09.920Z,97.19
2018-01-26T02:20:38.460Z,97.30
2018-01-26T02:23:06.982Z,97.39
2018-01-26T02:25:35.432Z,97.54
2018-01-26T02:28:03.726Z,97.74
2018-01-26T02:30:32.067Z,97.81
2018-01-26T02:33:00.429Z,97.90
2018-01-26T02:35:31.074Z,97.89
2018-01-26T02:37:59.444Z,97.84
2018-01-26T02:40:27.743Z,97.85
2018-01-26T02:42:57.709Z,97.87
2018-01-26T02:45:26.065Z,97.89
2018-01-26T02:47:54.378Z,97.96
2018-01-26T02:50:22.697Z,98.00
2018-01-26T02:52:52.786Z,98.06
2018-01-26T02:55:23.643Z,98.11
2018-01-26T02:57:52.738Z,98.17
2018-01-26T03:00:21.006Z,98.19
2018-01-26T03:02:51.544Z,98.24
2018-01-26T03:05:21.910Z,98.31
2018-01-26T03:07:52.640Z,98.26
2018-01-26T03:10:20.914Z,98.19
2018-01-26T03:12:49.236Z,98.20
2018-01-26T03:15:20.130Z,98.27
2018-01-26T03:17:51.044Z,98.27
2018-01-26T03:20:21.076Z,98.35
2018-01-26T03:22:49.375Z,98.18
2018-01-26T03:25:17.676Z,98.01
2018-01-26T03:27:45.964Z,98.02
2018-01-26T03:30:14.285Z,98.00
2018-01-26T03:32:42.655Z,98.04
2018-01-26T03:35:10.952Z,98.13
2018-01-26T03:37:39.235Z,98.20
2018-01-26T03:40:07.597Z,98.29
2018-01-26T03:42:35.884Z,98.36
2018-01-26T03:45:04.302Z,98.38
2018-01-26T03:47:32.617Z,98.42
2018-01-26T03:50:00.912Z,98.52
2018-01-26T03:52:34.896Z,98.59
2018-01-26T03:55:03.292Z,98.66
2018-01-26T03:57:31.632Z,98.65
2018-01-26T04:00:02.675Z,98.68
2018-01-26T04:02:31.053Z,98.70
2018-01-26T04:04:59.416Z,98.78
2018-01-26T04:07:27.715Z,98.85
2018-01-26T04:09:55.995Z,99.01
2018-01-26T04:12:24.348Z,99.09
2018-01-26T04:14:52.687Z,99.12
2018-01-26T04:17:21.059Z,99.10
2018-01-26T04:19:49.434Z,99.12
2018-01-26T04:22:17.727Z,99.16
2018-01-26T04:24:47.615Z,99.15
2018-01-26T04:27:15.950Z,99.14
2018-01-26T04:29:44.313Z,99.15
2018-01-26T04:32:12.712Z,99.13
2018-01-26T04:34:40.991Z,99.08
2018-01-26T04:37:09.443Z,99.04
2018-01-26T04:39:37.797Z,99.01
2018-01-26T04:42:06.090Z,98.97
2018-01-26T04:44:37.152Z,98.94
2018-01-26T04:47:05.441Z,98.91
2018-01-26T04:49:33.781Z,98.90
2018-01-26T04:52:03.687Z,98.86
2018-01-26T04:54:32.108Z,98.81
2018-01-26T04:57:00.495Z,98.75
2018-01-26T04:59:28.872Z,98.70
2018-01-26T05:01:57.205Z,98.66
2018-01-26T05:04:25.728Z,98.63
2018-01-26T05:06:54.158Z,98.48
2018-01-26T05:09:22.486Z,98.38
2018-01-26T05:11:50.792Z,98.35
2018-01-26T05:14:19.085Z,98.33
2018-01-26T05:16:47.405Z,98.29
2018-01-26T05:19:15.763Z,98.28
2018-01-26T05:21:46.757Z,98.29
2018-01-26T05:24:15.817Z,98.22
2018-01-26T05:26:45.877Z,98.18
2018-01-26T05:29:16.547Z,98.15
2018-01-26T05:31:44.861Z,98.07
2018-01-26T05:34:15.020Z,97.97
2018-01-26T05:36:43.409Z,97.92
2018-01-26T05:39:12.471Z,97.85
2018-01-26T05:41:40.783Z,97.79
2018-01-26T05:44:09.145Z,97.80
2018-01-26T05:46:39.167Z,97.88
2018-01-26T05:49:09.522Z,97.86
2018-01-26T05:51:38.751Z,97.88
2018-01-26T05:54:07.135Z,97.86
2018-01-26T05:56:35.447Z,97.83
2018-01-26T05:59:03.882Z,97.82
2018-01-26T06:01:32.203Z,97.82
2018-01-26T06:04:00.572Z,97.78
2018-01-26T06:06:28.905Z,97.77
2018-01-26T06:08:57.189Z,97.77
2018-01-26T06:11:25.477Z,97.77
2018-01-26T06:13:55.524Z,97.79
2018-01-26T06:16:23.921Z,97.84
2018-01-26T06:18:52.241Z,97.94
2018-01-26T06:21:20.567Z,97.97
2018-01-26T06:23:48.889Z,97.97
2018-01-26T06:26:19.902Z,97.98
2018-01-26T06:28:48.306Z,97.98
2018-01-26T06:31:16.636Z,97.96
2018-01-26T06:33:44.932Z,97.91
2018-01-26T06:36:14.074Z,97.96
2018-01-26T06:38:42.450Z,97.99
2018-01-26T06:41:11.522Z,98.05
2018-01-26T06:43:41.564Z,98.15
2018-01-26T06:46:10.033Z,98.18
2018-01-26T06:48:39.955Z,98.22
2018-01-26T06:51:08.340Z,98.23
2018-01-26T06:53:36.644Z,98.26
2018-01-26T06:56:05.056Z,98.28
2018-01-26T06:58:33.378Z,98.31
2018-01-26T07:01:01.744Z,98.34
2018-01-26T07:03:30.025Z,98.34
2018-01-26T07:05:58.355Z,98.35
2018-01-26T07:08:28.941Z,98.34
2018-01-26T07:10:58.883Z,98.34
2018-01-26T07:13:27.227Z,98.32
2018-01-26T07:15:55.509Z,98.32
2018-01-26T07:18:24.578Z,98.29
2018-01-26T07:20:55.459Z,98.23
2018-01-26T07:23:23.821Z,98.17
2018-01-26T07:25:52.122Z,98.16
2018-01-26T07:28:21.206Z,98.13
2018-01-26T07:30:49.563Z,98.13
2018-01-26T07:33:18.807Z,98.16
2018-01-26T07:35:47.888Z,98.11
2018-01-26T07:38:16.238Z,98.10
2018-01-26T07:40:44.620Z,98.09
2018-01-26T07:43:12.932Z,98.12
2018-01-26T07:45:44.046Z,98.15
2018-01-26T07:48:13.232Z,98.17
2018-01-26T07:50:43.242Z,98.20
2018-01-26T07:53:13.299Z,98.20
2018-01-26T07:55:42.969Z,98.21
2018-01-26T07:58:12.042Z,98.25
2018-01-26T08:00:40.444Z,98.25
2018-01-26T08:03:10.512Z,98.27
2018-01-26T08:05:38.994Z,98.28
2018-01-26T08:08:08.084Z,98.25
2018-01-26T08:10:36.426Z,98.24
2018-01-26T08:13:04.912Z,98.22
2018-01-26T08:15:33.236Z,98.19
2018-01-26T08:18:01.624Z,98.12
2018-01-26T08:20:30.009Z,98.06
2018-01-26T08:22:58.329Z,98.05
2018-01-26T08:25:26.695Z,97.99
2018-01-26T08:27:56.698Z,97.97
2018-01-26T08:30:25.148Z,97.91
2018-01-26T08:32:57.077Z,97.83
2018-01-26T08:35:26.141Z,97.75
2018-01-26T08:37:54.658Z,97.60
2018-01-26T08:40:23.104Z,97.59
2018-01-26T08:42:51.850Z,97.60
2018-01-26T08:45:20.191Z,97.51
2018-01-26T08:47:48.578Z,97.40
2018-01-26T08:50:17.674Z,97.49
2018-01-26T08:52:46.096Z,97.41
2018-01-26T08:55:21.702Z,97.28
2018-01-26T08:57:50.232Z,97.21
2018-01-26T09:00:20.326Z,97.05
2018-01-26T09:02:48.748Z,96.93
2018-01-26T09:05:17.094Z,96.77
2018-01-26T09:07:45.620Z,96.61
2018-01-26T09:10:13.988Z,96.47
2018-01-26T09:12:43.930Z,96.36
2018-01-26T09:15:12.412Z,96.16
2018-01-26T09:17:42.506Z,95.88
2018-01-26T09:20:10.938Z,95.78
2018-01-26T09:22:43.427Z,95.42
2018-01-26T09:25:12.438Z,95.02
2018-01-26T09:27:40.771Z,94.91
2018-01-26T09:30:10.798Z,94.69
2018-01-26T09:32:39.260Z,94.52
2018-01-26T09:35:08.362Z,94.39
2018-01-26T09:37:36.772Z,93.87
2018-01-26T09:40:06.694Z,93.31
2018-01-26T09:42:35.881Z,92.94
2018-01-26T09:45:04.290Z,92.75
2018-01-26T09:50:07.164Z,92.30
2018-01-26T09:52:35.553Z,92.34
2018-01-26T09:55:03.887Z,92.06
2018-01-26T09:57:34.042Z,91.97
2018-01-26T10:00:04.376Z,91.57
2018-01-26T10:02:35.406Z,91.48
2018-01-26T10:05:03.757Z,90.99
2018-01-26T10:07:32.118Z,90.48
2018-01-26T10:10:00.579Z,90.15
2018-01-26T10:12:30.673Z,90.05
2018-01-26T10:14:59.036Z,89.82
2018-01-26T10:17:28.911Z,89.89
2018-01-26T10:19:57.317Z,89.36
2018-01-26T10:22:25.638Z,89.03
2018-01-26T10:24:53.985Z,88.78
2018-01-26T10:27:22.299Z,88.58
2018-01-26T10:29:53.274Z,88.47
2018-01-26T10:32:21.688Z,88.31
2018-01-26T10:34:50.013Z,88.25
2018-01-26T10:37:18.541Z,88.36
2018-01-26T10:39:46.871Z,88.35
2018-01-26T10:42:16.846Z,88.58
2018-01-26T10:44:46.116Z,88.28
2018-01-26T10:47:14.494Z,87.85
2018-01-26T10:49:45.577Z,87.96
2018-01-26T10:52:13.955Z,87.77
2018-01-26T10:54:42.295Z,87.63
2018-01-26T10:57:11.927Z,87.68
2018-01-26T10:59:40.288Z,87.69
2018-01-26T11:02:10.803Z,87.80
2018-01-26T11:04:41.464Z,88.37
2018-01-26T11:07:09.767Z,88.60
2018-01-26T11:09:39.448Z,88.30
2018-01-26T11:12:08.851Z,88.18
2018-01-26T11:14:39.215Z,88.04
2018-01-26T11:17:12.569Z,88.15
2018-01-26T11:19:40.924Z,88.00
2018-01-26T11:22:09.483Z,88.33
2018-01-26T11:24:37.902Z,87.33
2018-01-26T11:27:07.955Z,87.23
2018-01-26T11:29:36.325Z,87.15
2018-01-26T11:32:04.711Z,86.61
2018-01-26T11:34:33.104Z,86.40
2018-01-26T11:37:01.412Z,86.28
2018-01-26T11:39:29.768Z,86.42
2018-01-26T11:41:58.073Z,86.73
2018-01-26T11:44:28.485Z,85.82
2018-01-26T11:46:59.155Z,86.10
2018-01-26T11:49:27.563Z,86.25
2018-01-26T11:51:57.617Z,86.05
2018-01-26T11:54:25.991Z,85.61
2018-01-26T11:56:54.397Z,84.83
2018-01-26T11:59:22.768Z,83.70
2018-01-26T12:01:51.125Z,83.82
2018-01-26T12:04:21.531Z,84.25
2018-01-26T12:06:49.877Z,84.41
2018-01-26T12:09:18.929Z,84.18
2018-01-26T12:11:47.371Z,84.12
2018-01-26T12:14:16.417Z,84.41
2018-01-26T12:16:44.761Z,84.09
2018-01-26T12:19:13.099Z,83.54
2018-01-26T12:21:41.466Z,82.89
2018-01-26T12:24:11.477Z,83.23
2018-01-26T12:26:42.365Z,83.39
2018-01-26T12:29:10.741Z,83.81
2018-01-26T12:31:41.989Z,83.47
2018-01-26T12:36:44.960Z,82.21
2018-01-26T12:39:13.297Z,82.72
2018-01-26T12:41:41.630Z,81.90
2018-01-26T12:44:10.185Z,81.69
2018-01-26T12:46:38.616Z,81.49
2018-01-26T12:49:06.913Z,81.22
2018-01-26T12:51:37.135Z,80.76
2018-01-26T12:54:10.603Z,80.38
2018-01-26T12:56:41.510Z,80.34
2018-01-26T12:59:09.856Z,80.00
2018-01-26T13:01:42.088Z,80.11
2018-01-26T13:04:13.113Z,81.03
2018-01-26T13:06:41.600Z,81.27
2018-01-26T13:09:10.692Z,81.14
2018-01-26T13:11:38.973Z,80.77
2018-01-26T13:14:07.329Z,81.07
2018-01-26T13:16:35.622Z,81.03
2018-01-26T13:19:03.963Z,81.21
2018-01-26T13:21:34.072Z,80.70
2018-01-26T13:24:03.172Z,81.19
2018-01-26T13:26:31.602Z,81.27
2018-01-26T13:29:00.009Z,81.54
2018-01-26T13:31:29.999Z,81.59
2018-01-26T13:33:58.438Z,81.94
2018-01-26T13:36:27.641Z,81.94
2018-01-26T13:38:55.858Z,81.87
2018-01-26T13:41:24.155Z,82.09
2018-01-26T13:43:52.579Z,82.09
2018-01-26T13:46:21.210Z,81.99
2018-01-26T13:48:49.570Z,82.08
2018-01-26T13:51:18.080Z,82.65
2018-01-26T13:53:46.681Z,82.85
2018-01-26T13:56:15.022Z,82.68
2018-01-26T13:58:43.458Z,82.63
2018-01-26T14:01:11.768Z,82.59
2018-01-26T14:03:40.177Z,82.97
2018-01-26T14:06:08.782Z,83.01
2018-01-26T14:08:37.102Z,82.86
2018-01-26T14:11:07.049Z,82.41
2018-01-26T14:13:37.148Z,82.79
2018-01-26T14:16:05.565Z,82.44
2018-01-26T14:18:33.954Z,83.06
2018-01-26T14:21:05.282Z,83.26
2018-01-26T14:23:34.396Z,83.51
2018-01-26T14:26:02.767Z,83.44
2018-01-26T14:28:31.070Z,83.34
2018-01-26T14:30:59.409Z,83.30
2018-01-26T14:33:28.515Z,83.50
2018-01-26T14:35:58.926Z,83.68
2018-01-26T14:38:29.758Z,83.79
2018-01-26T14:40:58.084Z,84.04
2018-01-26T14:43:28.374Z,84.25
2018-01-26T14:45:56.862Z,84.46
2018-01-26T14:48:27.046Z,84.56
2018-01-26T14:50:57.071Z,84.65
2018-01-26T14:53:25.599Z,84.72
2018-01-26T14:55:54.019Z,84.82
2018-01-26T14:58:22.435Z,84.92
2018-01-26T15:00:50.777Z,84.95
2018-01-26T15:03:21.691Z,85.18
2018-01-26T15:05:51.964Z,85.28
2018-01-26T15:08:22.812Z,85.48
2018-01-26T15:10:51.289Z,85.54
2018-01-26T15:13:19.660Z,85.63
2018-01-26T15:15:49.212Z,85.77
2018-01-26T15:18:17.725Z,85.93
2018-01-26T15:20:46.818Z,86.21
2018-01-26T15:23:18.686Z,86.45
2018-01-26T15:25:47.158Z,86.62
2018-01-26T15:28:16.251Z,86.75
2018-01-26T15:30:44.840Z,86.91
2018-01-26T15:33:15.888Z,87.12
2018-01-26T15:35:44.432Z,87.30
2018-01-26T15:38:12.962Z,87.60
2018-01-26T15:40:41.314Z,87.85
2018-01-26T15:43:10.448Z,88.02
2018-01-26T15:45:38.845Z,88.19
2018-01-26T15:48:07.174Z,88.42
2018-01-26T15:50:35.505Z,88.61
2018-01-26T15:53:03.877Z,88.74
2018-01-26T15:55:32.272Z,88.94
2018-01-26T15:58:00.604Z,89.06
2018-01-26T16:00:31.043Z,89.19
2018-01-26T16:03:01.347Z,89.30
2018-01-26T16:05:31.635Z,89.37
2018-01-26T16:07:59.943Z,89.48
2018-01-26T16:10:29.913Z,89.52
2018-01-26T16:13:00.811Z,89.66
2018-01-26T16:15:29.127Z,89.77
2018-01-26T16:17:57.590Z,89.90
2018-01-26T16:20:25.934Z,89.99
2018-01-26T16:22:57.270Z,90.05
2018-01-26T16:25:25.757Z,90.10
2018-01-26T16:27:54.241Z,90.16
2018-01-26T16:30:22.650Z,90.27
2018-01-26T16:32:51.034Z,90.51
2018-01-26T16:35:20.215Z,90.68
2018-01-26T16:37:48.593Z,90.86
2018-01-26T16:53:17.879Z,91.58
2018-01-26T16:55:47.608Z,91.80
2018-01-26T16:58:16.039Z,91.80
2018-01-26T17:00:44.415Z,91.83
2018-01-26T17:03:12.755Z,91.91
2018-01-26T17:05:41.092Z,92.02
2018-01-26T17:08:12.359Z,92.32
2018-01-26T17:10:42.396Z,92.44
2018-01-26T17:13:10.734Z,92.41
2018-01-26T17:15:39.060Z,92.59
2018-01-26T17:18:07.387Z,92.74
2018-01-26T17:20:36.540Z,92.82
2018-01-26T17:23:05.001Z,92.92
2018-01-26T17:25:33.603Z,92.97
2018-01-26T17:28:02.123Z,93.30
2018-01-26T17:30:30.578Z,93.62
2018-01-26T17:32:59.051Z,93.65
2018-01-26T17:35:27.486Z,93.58
2018-01-26T17:37:57.747Z,93.56
2018-01-26T17:40:29.768Z,93.43
2018-01-26T17:42:58.204Z,93.39
2018-01-26T17:45:26.503Z,93.36
2018-01-26T17:47:54.955Z,93.41
2018-01-26T17:50:23.280Z,93.49
2018-01-26T17:52:51.722Z,93.59
2018-01-26T17:55:20.219Z,93.88
2018-01-26T17:57:51.265Z,93.98
2018-01-26T18:00:19.771Z,94.23
2018-01-26T18:02:48.166Z,94.26
2018-01-26T18:05:18.681Z,94.39
2018-01-26T18:07:47.154Z,94.38
2018-01-26T18:10:15.777Z,94.34
2018-01-26T18:12:44.149Z,94.34
2018-01-26T18:15:12.577Z,94.28
2018-01-26T18:17:43.899Z,94.32
2018-01-26T18:20:13.004Z,94.49
2018-01-26T18:22:41.355Z,94.56
2018-01-26T18:25:09.706Z,94.54
2018-01-26T18:27:38.058Z,94.56
2018-01-26T18:30:07.283Z,94.55
2018-01-26T18:32:37.303Z,94.46
2018-01-26T18:35:05.814Z,94.42
2018-01-26T18:37:37.236Z,94.47
2018-01-26T18:40:05.754Z,94.50
2018-01-26T18:42:35.930Z,94.46
2018-01-26T18:45:04.418Z,94.46
2018-01-26T18:47:33.674Z,94.56
2018-01-26T18:50:02.185Z,94.51
2018-01-26T18:52:30.580Z,94.51
2018-01-26T18:55:00.785Z,94.54
2018-01-26T18:57:31.688Z,94.63
2018-01-26T19:00:01.400Z,94.67
2018-01-26T19:02:29.752Z,94.75
2018-01-26T19:04:58.102Z,94.90
2018-01-26T19:07:27.762Z,95.02
2018-01-26T19:09:56.389Z,95.00
2018-01-26T19:12:24.842Z,95.16
2018-01-26T19:14:54.094Z,95.25
2018-01-26T19:17:22.559Z,95.24
2018-01-26T19:19:52.847Z,95.59
2018-01-26T19:22:23.706Z,95.81
2018-01-26T19:24:52.287Z,95.70
2018-01-26T19:27:20.773Z,95.52
2018-01-26T19:29:51.926Z,95.53
2018-01-26T19:32:21.940Z,95.52
2018-01-26T19:34:50.341Z,95.49
2018-01-26T19:37:18.993Z,95.43
2018-01-26T19:39:48.970Z,95.48
2018-01-26T19:42:17.908Z,95.65
2018-01-26T19:44:46.387Z,95.68
2018-01-26T19:47:14.982Z,95.43
2018-01-26T19:49:43.542Z,95.37
2018-01-26T19:52:14.111Z,95.39
2018-01-26T19:54:42.761Z,95.51
2018-01-26T19:57:11.269Z,95.65
2018-01-26T19:59:39.769Z,95.63
2018-01-26T20:02:08.468Z,95.88
2018-01-26T20:04:42.585Z,95.93
2018-01-26T20:07:31.140Z,96.04
2018-01-26T20:10:00.802Z,95.97
2018-01-26T20:12:34.713Z,95.84
2018-01-26T20:15:03.310Z,95.78
2018-01-26T20:17:31.888Z,95.72
2018-01-26T20:20:02.623Z,95.65
2018-01-26T20:22:31.236Z,95.66
2018-01-26T20:24:59.698Z,95.87
2018-01-26T20:27:29.213Z,95.86
2018-01-26T20:29:59.318Z,95.82
2018-01-26T20:32:29.481Z,95.78
2018-01-26T20:34:58.039Z,95.76
2018-01-26T20:37:26.660Z,95.79
2018-01-26T20:39:55.213Z,95.85
2018-01-26T20:42:23.912Z,95.94
2018-01-26T20:44:52.376Z,95.92
2018-01-26T20:47:21.589Z,95.89
2018-01-26T20:49:50.375Z,95.82
2018-01-26T20:52:18.968Z,95.78
2018-01-26T20:54:47.961Z,95.80
2018-01-26T20:57:16.566Z,95.91
2018-01-26T20:59:45.044Z,95.94
2018-01-26T21:02:13.624Z,95.88
2018-01-26T21:04:43.815Z,95.83
2018-01-26T21:07:12.339Z,95.77
2018-01-26T21:09:40.820Z,95.70
2018-01-26T21:12:09.298Z,95.62
2018-01-26T21:14:37.821Z,95.66
2018-01-26T21:17:06.300Z,95.65
2018-01-26T21:19:34.819Z,95.69
2018-01-26T21:22:03.208Z,95.93
2018-01-26T21:24:33.271Z,95.98
2018-01-26T21:27:01.717Z,96.08
2018-01-26T21:29:30.189Z,96.16
2018-01-26T21:31:58.676Z,96.20
2018-01-26T21:34:28.907Z,96.17
2018-01-26T21:36:58.353Z,96.10
2018-01-26T21:39:26.905Z,96.01
2018-01-26T21:41:55.265Z,95.99
2018-01-26T21:44:23.679Z,95.99
2018-01-26T21:46:53.764Z,95.98
2018-01-26T21:49:22.140Z,95.97
2018-01-26T21:51:52.177Z,96.09
2018-01-26T21:54:20.661Z,96.11
2018-01-26T21:56:48.995Z,96.06
2018-01-26T21:59:17.307Z,95.97
2018-01-26T22:01:45.664Z,95.85
2018-01-26T22:04:14.006Z,95.80
2018-01-26T22:06:49.434Z,96.02
2018-01-26T22:09:17.851Z,96.19
2018-01-26T22:11:46.365Z,96.32
2018-01-26T22:14:17.394Z,96.36
2018-01-26T22:16:45.726Z,96.35
2018-01-26T22:19:14.134Z,96.33
2018-01-26T22:21:42.495Z,96.36
2018-01-26T22:24:10.785Z,96.41
2018-01-26T22:26:40.863Z,96.59
2018-01-26T22:29:09.249Z,96.61
2018-01-26T22:31:37.644Z,96.53
2018-01-26T22:34:07.590Z,96.53
2018-01-26T22:36:36.803Z,96.46
2018-01-26T22:39:07.936Z,96.42
2018-01-26T22:41:36.229Z,96.41
2018-01-26T22:44:04.592Z,96.35
2018-01-26T22:46:32.879Z,96.31
2018-01-26T22:49:01.967Z,96.27
2018-01-26T22:51:30.449Z,96.24
2018-01-26T22:53:58.759Z,96.25
2018-01-26T22:56:30.057Z,96.25
2018-01-26T22:59:01.152Z,96.22
2018-01-26T23:01:30.258Z,96.28
2018-01-26T23:04:01.442Z,96.08
2018-01-26T23:06:31.061Z,95.90
2018-01-26T23:09:00.135Z,96.07
2018-01-26T23:11:28.425Z,96.16
2018-01-26T23:13:56.753Z,96.19
2018-01-26T23:16:25.037Z,96.15
2018-01-26T23:18:53.341Z,96.11
2018-01-26T23:21:21.692Z,96.17
2018-01-26T23:23:50.069Z,96.21
2018-01-26T23:26:19.136Z,96.24
2018-01-26T23:28:49.053Z,96.23
2018-01-26T23:31:17.373Z,96.19
2018-01-26T23:33:45.675Z,96.40
2018-01-26T23:36:14.744Z,96.44
2018-01-26T23:38:43.083Z,96.42
2018-01-26T23:41:11.393Z,96.40
2018-01-26T23:43:40.787Z,96.40
2018-01-26T23:46:09.254Z,96.46
2018-01-26T23:48:39.310Z,96.48
2018-01-26T23:51:07.767Z,96.52
2018-01-26T23:53:36.088Z,96.48
2018-01-26T23:56:04.371Z,96.37
2018-01-26T23:58:32.681Z,96.36
